Airfield :
LOGIN :

Register | Disclaimer

   EN    FR    IT 

 










Legend :    VFR   Marginal VFR   IFR   Intensive IFR   Very Intensive IFR
Visi :
Ceiling :
>= 8 km
>= 3000ft
5 to 8 km
1000 to 3000 ft
1500m to 5 km
500 to 1000 ft
800 to 1500m
200 to 500 ft
< 800m
< 200 ft
Symbols :   Thunderstorms  Fog  Heavy snow  Heavy precipitations  Wind > 20 kt
SIGMETs :     Misc.  Thunderstorms  Icing  Turbulence  Mountain Waves  Volcanic Ashes







- Airport Elevation : 63 ft
- IATA code : BZM


EHWO - Woensdrecht Airbase

CURRENT METAR :
  • 152055Z AUTO VRB02KT 9999 OVC220 19/15 Q1015 BLU

EXPIRED METARs :
  • 152025Z AUTO 36003KT 320V050 9999 OVC230 22/13 Q1014 BLU
  • 151955Z AUTO 36003KT 320V030 9999 OVC240 23/13 Q1014 BLU
  • 151925Z AUTO 01005KT 300V040 9999 OVC230 24/12 Q1014 BLU
  • 151855Z AUTO 35008KT 310V040 9999 OVC240 26/13 Q1014 BLU
  • 151825Z AUTO 36008KT 320V050 9999 OVC250 27/12 Q1014 BLU
  • 151755Z AUTO 02007KT 310V060 9999 SCT260 28/09 Q1014 BLU

Expired Forecast.
No reported NOTAMs for that airfield.



MET'MAP, your aeronautical weather chart ! - Copyright ORBIFLY December 2007 - Disclaimer

ORBIFLY MET'MAP TEAM :

Programming & Development : Alexandra Zaïnal
Concept & Development : Baudouin d'Aumeries
Co-Development & Prog : Marc-Olivier Méhu
Technical & hardware support : Manuel Goepfert

Contact : metmap@orbifly.com




SOURCES & CREDITS :

   NOAA